createdAt,value
2018-02-17T00:00:37.381Z,0
2018-02-17T00:01:37.349Z,0
2018-02-17T00:02:37.602Z,0
2018-02-17T00:03:37.330Z,0
2018-02-17T00:04:37.581Z,0
2018-02-17T00:05:37.556Z,0
2018-02-17T00:06:37.534Z,0
2018-02-17T00:07:37.269Z,0
2018-02-17T00:08:37.239Z,0
2018-02-17T00:09:37.475Z,0
2018-02-17T00:10:37.467Z,0
2018-02-17T00:11:37.453Z,0
2018-02-17T00:12:37.176Z,0
2018-02-17T00:13:37.426Z,0
2018-02-17T00:14:37.399Z,0
2018-02-17T00:15:37.380Z,0
2018-02-17T00:16:37.365Z,0
2018-02-17T00:17:36.848Z,0
2018-02-17T00:18:36.824Z,0
2018-02-17T00:19:37.326Z,0
2018-02-17T00:20:37.049Z,0
2018-02-17T00:21:37.035Z,0
2018-02-17T00:22:37.276Z,0
2018-02-17T00:23:37.510Z,0
2018-02-17T00:24:37.252Z,0
2018-02-17T00:25:36.713Z,0
2018-02-17T00:26:37.206Z,0
2018-02-17T00:27:37.190Z,0
2018-02-17T00:28:36.931Z,0
2018-02-17T00:29:36.899Z,0
2018-02-17T00:30:37.156Z,0
2018-02-17T00:31:36.873Z,0
2018-02-17T00:32:36.857Z,0
2018-02-17T00:33:37.097Z,0
2018-02-17T00:34:36.564Z,0
2018-02-17T00:35:36.812Z,0
2018-02-17T00:36:37.052Z,0
2018-02-17T00:37:37.033Z,0
2018-02-17T00:38:36.761Z,0
2018-02-17T00:39:37.000Z,0
2018-02-17T00:40:36.986Z,0
2018-02-17T00:41:36.708Z,0
2018-02-17T00:42:36.971Z,0
2018-02-17T00:43:36.426Z,0
2018-02-17T00:44:36.913Z,0
2018-02-17T00:45:36.647Z,0
2018-02-17T00:46:36.892Z,0
2018-02-17T00:47:36.633Z,0
2018-02-17T00:48:36.602Z,0
2018-02-17T00:49:36.844Z,0
2018-02-17T00:50:36.573Z,0
2018-02-17T00:51:36.300Z,0
2018-02-17T00:52:36.795Z,0
2018-02-17T00:53:36.780Z,0
2018-02-17T00:54:37.023Z,0
2018-02-17T00:55:36.738Z,0
2018-02-17T00:56:36.473Z,0
2018-02-17T00:57:36.709Z,0
2018-02-17T00:58:36.181Z,0
2018-02-17T00:59:36.681Z,0
2018-02-17T01:00:36.666Z,0
2018-02-17T01:01:36.650Z,0
2018-02-17T01:02:36.633Z,0
2018-02-17T01:03:36.366Z,0
2018-02-17T01:04:36.603Z,0
2018-02-17T01:05:36.583Z,0
2018-02-17T01:06:36.568Z,0
2018-02-17T01:07:36.564Z,0
2018-02-17T01:08:36.025Z,0
2018-02-17T01:09:36.515Z,0
2018-02-17T01:10:36.498Z,0
2018-02-17T01:11:36.499Z,0
2018-02-17T01:12:36.484Z,0
2018-02-17T01:13:36.499Z,0
2018-02-17T01:14:36.437Z,0
2018-02-17T01:15:36.441Z,0
2018-02-17T01:16:36.407Z,0
2018-02-17T01:17:36.133Z,0
2018-02-17T01:18:36.382Z,0
2018-02-17T01:19:36.359Z,0
2018-02-17T01:20:36.349Z,0
2018-02-17T01:21:36.336Z,0
2018-02-17T01:22:36.312Z,0
2018-02-17T01:23:35.788Z,0
2018-02-17T01:24:36.274Z,0
2018-02-17T01:25:36.512Z,0
2018-02-17T01:26:35.763Z,0
2018-02-17T01:27:35.966Z,0
2018-02-17T01:28:35.955Z,0
2018-02-17T01:29:35.939Z,0
2018-02-17T01:30:36.182Z,0
2018-02-17T01:31:36.157Z,0
2018-02-17T01:32:36.136Z,0
2018-02-17T01:33:36.132Z,0
2018-02-17T01:34:35.854Z,0
2018-02-17T01:35:36.093Z,0
2018-02-17T01:36:36.086Z,0
2018-02-17T01:37:36.059Z,0
2018-02-17T01:38:35.797Z,0
2018-02-17T01:39:35.770Z,0
2018-02-17T01:40:35.502Z,0
2018-02-17T01:41:35.993Z,0
2018-02-17T01:42:35.977Z,0
2018-02-17T01:43:35.971Z,0
2018-02-17T01:44:35.955Z,0
2018-02-17T01:45:35.674Z,0
2018-02-17T01:46:35.659Z,0
2018-02-17T01:47:36.068Z,0
2018-02-17T01:48:35.885Z,0
2018-02-17T01:49:35.890Z,0
2018-02-17T01:50:35.854Z,0
2018-02-17T01:51:35.581Z,0
2018-02-17T01:52:35.818Z,0
2018-02-17T01:53:35.793Z,0
2018-02-17T01:54:35.787Z,0
2018-02-17T01:55:35.805Z,0
2018-02-17T01:56:35.737Z,0
2018-02-17T01:57:35.483Z,0
2018-02-17T01:58:35.718Z,0
2018-02-17T01:59:35.839Z,0
2018-02-17T02:00:35.692Z,0
2018-02-17T02:01:35.669Z,0
2018-02-17T02:02:35.659Z,0
2018-02-17T02:03:35.637Z,0
2018-02-17T02:04:35.611Z,0
2018-02-17T02:05:35.611Z,0
2018-02-17T02:06:35.589Z,0
2018-02-17T02:07:35.575Z,0
2018-02-17T02:08:35.563Z,0
2018-02-17T02:09:35.290Z,0
2018-02-17T02:10:35.517Z,0
2018-02-17T02:11:35.502Z,0
2018-02-17T02:12:35.256Z,0
2018-02-17T02:13:35.487Z,0
2018-02-17T02:14:35.460Z,0
2018-02-17T02:15:35.445Z,0
2018-02-17T02:16:35.422Z,0
2018-02-17T02:17:35.398Z,0
2018-02-17T02:18:35.394Z,0
2018-02-17T02:19:35.372Z,0
2018-02-17T02:20:35.362Z,0
2018-02-17T02:21:35.102Z,0
2018-02-17T02:22:35.071Z,0
2018-02-17T02:23:35.304Z,0
2018-02-17T02:24:35.306Z,0
2018-02-17T02:25:35.277Z,0
2018-02-17T02:26:35.267Z,0
2018-02-17T02:27:35.503Z,0
2018-02-17T02:28:35.236Z,0
2018-02-17T02:29:34.701Z,0
2018-02-17T02:30:35.266Z,0
2018-02-17T02:31:34.934Z,0
2018-02-17T02:32:35.175Z,0
2018-02-17T02:33:35.163Z,0
2018-02-17T02:34:35.138Z,0
2018-02-17T02:35:34.878Z,0
2018-02-17T02:36:35.121Z,0
2018-02-17T02:37:35.115Z,0
2018-02-17T02:38:34.835Z,0
2018-02-17T02:39:35.071Z,0
2018-02-17T02:40:35.055Z,0
2018-02-17T02:41:34.788Z,0
2018-02-17T02:42:35.034Z,0
2018-02-17T02:43:34.999Z,0
2018-02-17T02:44:34.989Z,0
2018-02-17T02:45:34.458Z,0
2018-02-17T02:46:34.964Z,0
2018-02-17T02:47:34.682Z,0
2018-02-17T02:48:34.968Z,0
2018-02-17T02:49:34.651Z,0
2018-02-17T02:50:34.893Z,0
2018-02-17T02:51:34.879Z,0
2018-02-17T02:52:34.621Z,0
2018-02-17T02:53:34.847Z,0
2018-02-17T02:54:34.582Z,0
2018-02-17T02:55:34.808Z,0
2018-02-17T02:56:34.545Z,0
2018-02-17T02:57:34.793Z,0
2018-02-17T02:58:34.785Z,0
2018-02-17T02:59:34.758Z,0
2018-02-17T03:00:34.484Z,0
2018-02-17T03:01:34.724Z,0
2018-02-17T03:02:34.715Z,0
2018-02-17T03:03:34.698Z,0
2018-02-17T03:04:34.434Z,0
2018-02-17T03:05:34.668Z,0
2018-02-17T03:06:34.658Z,0
2018-02-17T03:07:34.630Z,0
2018-02-17T03:08:34.614Z,0
2018-02-17T03:09:34.354Z,0
2018-02-17T03:10:34.580Z,0
2018-02-17T03:11:34.569Z,0
2018-02-17T03:12:34.547Z,0
2018-02-17T03:13:34.547Z,0
2018-02-17T03:14:34.266Z,0
2018-02-17T03:15:34.510Z,0
2018-02-17T03:16:34.494Z,0
2018-02-17T03:17:34.503Z,0
2018-02-17T03:18:34.203Z,0
2018-02-17T03:19:34.445Z,0
2018-02-17T03:20:33.919Z,0
2018-02-17T03:21:34.429Z,0
2018-02-17T03:22:34.155Z,0
2018-02-17T03:23:34.140Z,0
2018-02-17T03:24:34.366Z,0
2018-02-17T03:25:34.361Z,0
2018-02-17T03:26:34.344Z,0
2018-02-17T03:27:34.327Z,0
2018-02-17T03:28:34.059Z,0
2018-02-17T03:29:34.310Z,0
2018-02-17T03:30:34.546Z,0
2018-02-17T03:31:34.288Z,0
2018-02-17T03:32:34.012Z,0
2018-02-17T03:33:34.242Z,0
2018-02-17T03:34:34.229Z,0
2018-02-17T03:35:34.256Z,0
2018-02-17T03:36:34.202Z,0
2018-02-17T03:37:33.932Z,0
2018-02-17T03:38:34.170Z,0
2018-02-17T03:39:34.151Z,0
2018-02-17T03:40:33.883Z,0
2018-02-17T03:41:34.120Z,0
2018-02-17T03:42:34.112Z,0
2018-02-17T03:43:34.095Z,0
2018-02-17T03:44:34.137Z,0
2018-02-17T03:45:34.062Z,0
2018-02-17T03:46:34.049Z,0
2018-02-17T03:47:34.033Z,0
2018-02-17T03:48:34.016Z,0
2018-02-17T03:49:33.750Z,0
2018-02-17T03:50:33.995Z,0
2018-02-17T03:51:33.986Z,0
2018-02-17T03:52:33.706Z,0
2018-02-17T03:53:33.688Z,0
2018-02-17T03:54:33.933Z,0
2018-02-17T03:55:33.923Z,0
2018-02-17T03:56:33.916Z,0
2018-02-17T03:57:33.889Z,0
2018-02-17T03:58:33.865Z,0
2018-02-17T03:59:33.865Z,0
2018-02-17T04:00:33.584Z,0
2018-02-17T04:01:34.087Z,0
2018-02-17T04:02:33.814Z,0
2018-02-17T04:03:33.804Z,0
2018-02-17T04:04:33.784Z,0
2018-02-17T04:05:33.771Z,0
2018-02-17T04:06:33.492Z,0
2018-02-17T04:07:33.739Z,0
2018-02-17T04:08:33.722Z,0
2018-02-17T04:09:33.709Z,0
2018-02-17T04:10:33.695Z,0
2018-02-17T04:11:33.677Z,0
2018-02-17T04:12:33.661Z,0
2018-02-17T04:13:33.396Z,0
2018-02-17T04:14:33.633Z,0
2018-02-17T04:15:33.372Z,0
2018-02-17T04:16:33.608Z,0
2018-02-17T04:17:33.592Z,0
2018-02-17T04:18:33.577Z,0
2018-02-17T04:19:33.557Z,0
2018-02-17T04:20:33.550Z,0
2018-02-17T04:21:33.018Z,0
2018-02-17T04:22:33.264Z,0
2018-02-17T04:23:32.992Z,0
2018-02-17T04:24:33.481Z,0
2018-02-17T04:25:33.222Z,0
2018-02-17T04:26:33.202Z,0
2018-02-17T04:27:33.442Z,0
2018-02-17T04:28:33.179Z,0
2018-02-17T04:29:33.413Z,0
2018-02-17T04:30:33.400Z,0
2018-02-17T04:31:33.386Z,0
2018-02-17T04:32:33.361Z,0
2018-02-17T04:33:33.362Z,0
2018-02-17T04:34:33.337Z,0
2018-02-17T04:35:33.075Z,0
2018-02-17T04:36:33.317Z,0
2018-02-17T04:37:33.295Z,0
2018-02-17T04:38:33.026Z,0
2018-02-17T04:39:33.273Z,0
2018-02-17T04:40:33.251Z,0
2018-02-17T04:41:33.284Z,0
2018-02-17T04:42:33.230Z,0
2018-02-17T04:43:33.214Z,0
2018-02-17T04:44:33.206Z,0
2018-02-17T04:45:33.185Z,0
2018-02-17T04:46:33.168Z,0
2018-02-17T04:47:32.908Z,0
2018-02-17T04:48:32.881Z,0
2018-02-17T04:49:33.124Z,0
2018-02-17T04:50:33.119Z,0
2018-02-17T04:51:33.096Z,0
2018-02-17T04:52:33.080Z,0
2018-02-17T04:53:33.081Z,0
2018-02-17T04:54:33.050Z,0
2018-02-17T04:55:32.782Z,0
2018-02-17T04:56:33.022Z,0
2018-02-17T04:57:32.505Z,0
2018-02-17T04:58:32.736Z,0
2018-02-17T04:59:32.723Z,0
2018-02-17T05:00:32.980Z,0
2018-02-17T05:01:32.950Z,0
2018-02-17T05:02:32.686Z,0
2018-02-17T05:03:32.915Z,0
2018-02-17T05:04:32.648Z,0
2018-02-17T05:05:32.891Z,0
2018-02-17T05:06:32.880Z,0
2018-02-17T05:07:32.854Z,0
2018-02-17T05:08:32.846Z,0
2018-02-17T05:09:32.586Z,0
2018-02-17T05:10:32.564Z,0
2018-02-17T05:11:32.289Z,0
2018-02-17T05:12:32.786Z,0
2018-02-17T05:13:32.777Z,0
2018-02-17T05:14:32.502Z,0
2018-02-17T05:15:32.487Z,0
2018-02-17T05:16:32.731Z,0
2018-02-17T05:17:32.721Z,0
2018-02-17T05:18:32.703Z,0
2018-02-17T05:19:32.185Z,0
2018-02-17T05:20:32.418Z,0
2018-02-17T05:21:32.413Z,0
2018-02-17T05:22:32.656Z,0
2018-02-17T05:23:32.628Z,0
2018-02-17T05:24:31.850Z,0
2018-02-17T05:25:32.596Z,0
2018-02-17T05:26:32.588Z,0
2018-02-17T05:27:32.319Z,0
2018-02-17T05:28:32.555Z,0
2018-02-17T05:29:32.293Z,0
2018-02-17T05:30:32.537Z,0
2018-02-17T05:31:32.253Z,0
2018-02-17T05:32:32.501Z,0
2018-02-17T05:33:32.233Z,0
2018-02-17T05:34:32.253Z,0
2018-02-17T05:35:32.200Z,0
2018-02-17T05:36:32.192Z,0
2018-02-17T05:37:31.917Z,0
2018-02-17T05:38:32.413Z,0
2018-02-17T05:39:32.401Z,0
2018-02-17T05:40:32.389Z,0
2018-02-17T05:41:32.372Z,0
2018-02-17T05:42:32.358Z,0
2018-02-17T05:43:32.090Z,0
2018-02-17T05:44:32.331Z,0
2018-02-17T05:45:32.317Z,0
2018-02-17T05:46:32.303Z,0
2018-02-17T05:47:32.283Z,0
2018-02-17T05:48:32.272Z,0
2018-02-17T05:49:32.003Z,0
2018-02-17T05:50:31.990Z,0
2018-02-17T05:51:32.235Z,0
2018-02-17T05:52:31.959Z,0
2018-02-17T05:53:32.206Z,0
2018-02-17T05:54:32.181Z,0
2018-02-17T05:55:31.914Z,0
2018-02-17T05:56:31.904Z,0
2018-02-17T05:57:32.153Z,0
2018-02-17T05:58:32.134Z,0
2018-02-17T05:59:31.864Z,0
2018-02-17T06:00:31.849Z,0
2018-02-17T06:01:32.091Z,0
2018-02-17T06:02:32.071Z,0
2018-02-17T06:03:32.057Z,0
2018-02-17T06:04:31.791Z,0
2018-02-17T06:05:32.029Z,0
2018-02-17T06:06:32.007Z,0
2018-02-17T06:07:31.750Z,0
2018-02-17T06:08:31.982Z,0
2018-02-17T06:09:31.212Z,0
2018-02-17T06:10:31.960Z,0
2018-02-17T06:11:31.951Z,0
2018-02-17T06:12:31.934Z,0
2018-02-17T06:13:31.914Z,0
2018-02-17T06:14:31.648Z,0
2018-02-17T06:15:31.891Z,0
2018-02-17T06:16:31.876Z,0
2018-02-17T06:17:31.858Z,5
2018-02-17T06:18:31.849Z,5
2018-02-17T06:19:31.576Z,5
2018-02-17T06:20:31.571Z,5
2018-02-17T06:21:31.550Z,5
2018-02-17T06:22:31.783Z,5
2018-02-17T06:23:31.777Z,5
2018-02-17T06:24:31.506Z,5
2018-02-17T06:25:31.746Z,5
2018-02-17T06:26:31.730Z,5
2018-02-17T06:27:31.718Z,10
2018-02-17T06:28:31.702Z,10
2018-02-17T06:29:31.436Z,10
2018-02-17T06:30:31.683Z,10
2018-02-17T06:31:31.661Z,10
2018-02-17T06:32:31.132Z,10
2018-02-17T06:33:31.631Z,10
2018-02-17T06:34:31.633Z,15
2018-02-17T06:35:31.340Z,15
2018-02-17T06:36:31.597Z,15
2018-02-17T06:37:31.827Z,15
2018-02-17T06:38:31.046Z,15
2018-02-17T06:39:31.293Z,20
2018-02-17T06:40:31.288Z,20
2018-02-17T06:41:31.515Z,20
2018-02-17T06:42:31.505Z,20
2018-02-17T06:43:31.493Z,25
2018-02-17T06:44:31.225Z,25
2018-02-17T06:45:31.459Z,25
2018-02-17T06:46:30.936Z,25
2018-02-17T06:47:31.178Z,25
2018-02-17T06:48:31.160Z,30
2018-02-17T06:49:31.150Z,30
2018-02-17T06:50:31.395Z,30
2018-02-17T06:51:31.386Z,30
2018-02-17T06:52:31.102Z,30
2018-02-17T06:53:31.340Z,35
2018-02-17T06:54:31.071Z,35
2018-02-17T06:55:31.322Z,35
2018-02-17T06:56:31.309Z,40
2018-02-17T06:57:31.287Z,40
2018-02-17T06:58:31.270Z,40
2018-02-17T06:59:31.008Z,40
2018-02-17T07:00:30.983Z,45
2018-02-17T07:01:30.976Z,45
2018-02-17T07:02:31.212Z,45
2018-02-17T07:03:31.222Z,50
2018-02-17T07:04:30.934Z,50
2018-02-17T07:05:30.921Z,50
2018-02-17T07:06:31.174Z,55
2018-02-17T07:07:31.145Z,55
2018-02-17T07:08:31.379Z,55
2018-02-17T07:09:30.860Z,55
2018-02-17T07:10:31.099Z,60
2018-02-17T07:11:30.839Z,60
2018-02-17T07:12:30.830Z,60
2018-02-17T07:13:31.068Z,60
2018-02-17T07:14:31.047Z,60
2018-02-17T07:15:31.045Z,65
2018-02-17T07:16:31.023Z,65
2018-02-17T07:17:30.755Z,70
2018-02-17T07:18:30.741Z,70
2018-02-17T07:19:30.974Z,70
2018-02-17T07:20:30.846Z,75
2018-02-17T07:21:30.955Z,75
2018-02-17T07:22:30.686Z,80
2018-02-17T07:23:30.930Z,80
2018-02-17T07:24:30.655Z,85
2018-02-17T07:25:30.664Z,90
2018-02-17T07:26:30.888Z,90
2018-02-17T07:27:30.920Z,95
2018-02-17T07:28:30.603Z,95
2018-02-17T07:29:30.582Z,100
2018-02-17T07:30:30.845Z,100
2018-02-17T07:31:30.815Z,105
2018-02-17T07:32:30.554Z,105
2018-02-17T07:33:30.540Z,110
2018-02-17T07:34:30.771Z,110
2018-02-17T07:35:30.511Z,110
2018-02-17T07:36:30.766Z,110
2018-02-17T07:37:30.749Z,105
2018-02-17T07:38:30.725Z,105
2018-02-17T07:39:30.704Z,105
2018-02-17T07:40:30.302Z,110
2018-02-17T07:41:30.684Z,110
2018-02-17T07:42:30.677Z,105
2018-02-17T07:43:30.687Z,105
2018-02-17T07:44:30.648Z,105
2018-02-17T07:45:30.636Z,105
2018-02-17T07:46:30.372Z,105
2018-02-17T07:47:30.358Z,105
2018-02-17T07:48:30.607Z,110
2018-02-17T07:49:30.325Z,110
2018-02-17T07:50:30.569Z,110
2018-02-17T07:51:30.684Z,120
2018-02-17T07:52:30.286Z,120
2018-02-17T07:53:30.275Z,120
2018-02-17T07:54:30.542Z,125
2018-02-17T07:55:30.502Z,125
2018-02-17T07:56:30.235Z,120
2018-02-17T07:57:30.010Z,120
2018-02-17T07:58:30.564Z,120
2018-02-17T07:59:30.457Z,120
2018-02-17T08:00:30.184Z,120
2018-02-17T08:01:30.458Z,120
2018-02-17T08:02:30.431Z,120
2018-02-17T08:03:30.139Z,120
2018-02-17T08:04:30.393Z,120
2018-02-17T08:05:30.377Z,120
2018-02-17T08:06:30.364Z,120
2018-02-17T08:07:30.353Z,120
2018-02-17T08:08:30.341Z,120
2018-02-17T08:09:30.067Z,120
2018-02-17T08:10:30.320Z,120
2018-02-17T08:11:30.290Z,120
2018-02-17T08:12:30.045Z,120
2018-02-17T08:13:30.285Z,120
2018-02-17T08:14:30.003Z,125
2018-02-17T08:15:30.222Z,120
2018-02-17T08:16:30.234Z,120
2018-02-17T08:17:30.227Z,120
2018-02-17T08:18:30.215Z,120
2018-02-17T08:19:29.954Z,125
2018-02-17T08:20:30.204Z,125
2018-02-17T08:21:30.183Z,125
2018-02-17T08:22:30.164Z,120
2018-02-17T08:23:30.153Z,120
2018-02-17T08:24:29.890Z,120
2018-02-17T08:25:30.132Z,120
2018-02-17T08:26:29.862Z,120
2018-02-17T08:27:29.855Z,120
2018-02-17T08:28:30.097Z,120
2018-02-17T08:29:29.569Z,120
2018-02-17T08:30:30.079Z,120
2018-02-17T08:31:29.806Z,120
2018-02-17T08:32:30.076Z,125
2018-02-17T08:33:29.794Z,120
2018-02-17T08:34:30.023Z,125
2018-02-17T08:35:30.011Z,125
2018-02-17T08:36:29.998Z,125
2018-02-17T08:37:29.723Z,135
2018-02-17T08:38:29.978Z,130
2018-02-17T08:39:29.988Z,130
2018-02-17T08:40:29.951Z,135
2018-02-17T08:41:29.931Z,135
2018-02-17T08:42:30.168Z,145
2018-02-17T08:43:29.936Z,155
2018-02-17T08:44:29.637Z,165
2018-02-17T08:45:29.624Z,165
2018-02-17T08:46:29.680Z,160
2018-02-17T08:47:30.165Z,155
2018-02-17T08:48:29.853Z,150
2018-02-17T08:49:29.594Z,145
2018-02-17T08:50:29.828Z,145
2018-02-17T08:51:29.560Z,135
2018-02-17T08:52:29.805Z,145
2018-02-17T08:53:29.780Z,140
2018-02-17T08:54:29.769Z,140
2018-02-17T08:55:29.758Z,135
2018-02-17T08:56:29.750Z,140
2018-02-17T08:57:29.744Z,140
2018-02-17T08:58:29.215Z,145
2018-02-17T08:59:29.721Z,150
2018-02-17T09:00:29.703Z,155
2018-02-17T09:01:29.682Z,155
2018-02-17T09:02:29.680Z,165
2018-02-17T09:03:29.408Z,170
2018-02-17T09:04:29.656Z,165
2018-02-17T09:05:29.391Z,160
2018-02-17T09:06:29.369Z,155
2018-02-17T09:07:29.631Z,165
2018-02-17T09:08:29.611Z,165
2018-02-17T09:09:29.336Z,170
2018-02-17T09:10:29.581Z,170
2018-02-17T09:11:29.315Z,175
2018-02-17T09:12:29.564Z,175
2018-02-17T09:13:29.802Z,180
2018-02-17T09:14:29.274Z,180
2018-02-17T09:15:29.520Z,175
2018-02-17T09:16:29.519Z,180
2018-02-17T09:17:29.513Z,185
2018-02-17T09:18:29.484Z,185
2018-02-17T09:19:29.221Z,200
2018-02-17T09:20:29.210Z,220
2018-02-17T09:21:29.457Z,230
2018-02-17T09:22:29.434Z,245
2018-02-17T09:23:29.436Z,255
2018-02-17T09:24:29.161Z,255
2018-02-17T09:25:29.410Z,250
2018-02-17T09:26:29.398Z,255
2018-02-17T09:27:29.427Z,260
2018-02-17T09:28:29.372Z,275
2018-02-17T09:29:29.368Z,270
2018-02-17T09:30:28.862Z,275
2018-02-17T09:31:29.072Z,280
2018-02-17T09:32:29.325Z,285
2018-02-17T09:33:29.315Z,280
2018-02-17T09:34:28.786Z,285
2018-02-17T09:35:29.294Z,290
2018-02-17T09:36:29.018Z,285
2018-02-17T09:37:29.011Z,280
2018-02-17T09:38:29.264Z,275
2018-02-17T09:39:28.993Z,275
2018-02-17T09:40:29.234Z,280
2018-02-17T09:41:29.230Z,290
2018-02-17T09:42:29.210Z,290
2018-02-17T09:43:28.946Z,290
2018-02-17T09:44:29.185Z,295
2018-02-17T09:45:29.231Z,290
2018-02-17T09:46:28.922Z,290
2018-02-17T09:47:29.159Z,295
2018-02-17T09:48:29.167Z,295
2018-02-17T09:49:28.879Z,295
2018-02-17T09:50:28.892Z,300
2018-02-17T09:51:29.130Z,300
2018-02-17T09:52:28.855Z,300
2018-02-17T09:53:29.104Z,295
2018-02-17T09:54:28.833Z,290
2018-02-17T09:55:29.086Z,290
2018-02-17T09:56:28.819Z,295
2018-02-17T09:57:28.800Z,295
2018-02-17T09:58:29.057Z,295
2018-02-17T09:59:28.791Z,300
2018-02-17T10:00:29.039Z,295
2018-02-17T10:01:29.023Z,295
2018-02-17T10:02:29.081Z,300
2018-02-17T10:03:28.998Z,295
2018-02-17T10:04:28.749Z,295
2018-02-17T10:05:28.993Z,295
2018-02-17T10:06:28.985Z,285
2018-02-17T10:07:28.966Z,280
2018-02-17T10:08:28.964Z,275
2018-02-17T10:09:28.708Z,275
2018-02-17T10:10:28.937Z,275
2018-02-17T10:11:28.767Z,265
2018-02-17T10:12:28.651Z,270
2018-02-17T10:13:28.650Z,270
2018-02-17T10:14:28.903Z,265
2018-02-17T10:15:29.149Z,265
2018-02-17T10:16:28.919Z,270
2018-02-17T10:17:28.793Z,280
2018-02-17T10:18:28.868Z,295
2018-02-17T10:19:28.973Z,315
2018-02-17T10:20:28.848Z,320
2018-02-17T10:21:28.843Z,315
2018-02-17T10:22:28.569Z,295
2018-02-17T10:23:28.816Z,300
2018-02-17T10:24:28.967Z,310
2018-02-17T10:25:28.784Z,315
2018-02-17T10:26:28.789Z,315
2018-02-17T10:27:28.532Z,310
2018-02-17T10:28:28.777Z,305
2018-02-17T10:29:28.757Z,300
2018-02-17T10:30:28.775Z,290
2018-02-17T10:31:28.483Z,285
2018-02-17T10:32:28.724Z,285
2018-02-17T10:33:28.725Z,280
2018-02-17T10:34:28.451Z,280
2018-02-17T10:35:28.545Z,285
2018-02-17T10:36:28.690Z,290
2018-02-17T10:37:28.682Z,295
2018-02-17T10:38:28.671Z,295
2018-02-17T10:39:28.653Z,295
2018-02-17T10:40:28.661Z,300
2018-02-17T10:41:28.710Z,300
2018-02-17T10:42:28.377Z,295
2018-02-17T10:43:28.628Z,290
2018-02-17T10:44:28.605Z,285
2018-02-17T10:45:28.344Z,290
2018-02-17T10:46:28.848Z,290
2018-02-17T10:47:28.588Z,290
2018-02-17T10:48:28.596Z,295
2018-02-17T10:49:28.567Z,305
2018-02-17T10:50:28.556Z,310
2018-02-17T10:51:28.294Z,320
2018-02-17T10:52:28.551Z,325
2018-02-17T10:53:28.277Z,330
2018-02-17T10:54:28.522Z,330
2018-02-17T10:55:28.262Z,325
2018-02-17T10:56:28.514Z,320
2018-02-17T10:57:28.246Z,320
2018-02-17T10:58:28.536Z,325
2018-02-17T10:59:28.225Z,325
2018-02-17T11:00:28.216Z,330
2018-02-17T11:01:28.456Z,335
2018-02-17T11:02:28.465Z,335
2018-02-17T11:03:28.191Z,330
2018-02-17T11:04:28.451Z,325
2018-02-17T11:05:28.179Z,330
2018-02-17T11:06:28.476Z,325
2018-02-17T11:07:28.151Z,320
2018-02-17T11:08:28.411Z,315
2018-02-17T11:09:28.395Z,310
2018-02-17T11:10:28.123Z,320
2018-02-17T11:11:28.384Z,325
2018-02-17T11:12:28.182Z,330
2018-02-17T11:13:28.358Z,335
2018-02-17T11:14:28.094Z,335
2018-02-17T11:15:28.350Z,340
2018-02-17T11:16:28.078Z,340
2018-02-17T11:17:28.341Z,340
2018-02-17T11:18:28.582Z,335
2018-02-17T11:19:27.800Z,330
2018-02-17T11:20:27.783Z,325
2018-02-17T11:21:28.296Z,325
2018-02-17T11:22:28.024Z,325
2018-02-17T11:23:28.021Z,325
2018-02-17T11:24:28.279Z,330
2018-02-17T11:25:28.257Z,325
2018-02-17T11:26:27.994Z,325
2018-02-17T11:27:27.793Z,315
2018-02-17T11:28:28.235Z,310
2018-02-17T11:29:27.709Z,310
2018-02-17T11:30:28.207Z,310
2018-02-17T11:31:28.205Z,315
2018-02-17T11:32:28.191Z,310
2018-02-17T11:33:27.935Z,320
2018-02-17T11:34:27.924Z,325
2018-02-17T11:35:28.190Z,330
2018-02-17T11:36:27.928Z,335
2018-02-17T11:37:27.906Z,310
2018-02-17T11:38:27.893Z,310
2018-02-17T11:39:28.150Z,320
2018-02-17T11:40:27.867Z,330
2018-02-17T11:41:28.112Z,340
2018-02-17T11:42:28.116Z,335
2018-02-17T11:43:27.598Z,325
2018-02-17T11:44:28.098Z,325
2018-02-17T11:45:27.831Z,335
2018-02-17T11:46:27.324Z,340
2018-02-17T11:47:28.092Z,335
2018-02-17T11:48:28.148Z,330
2018-02-17T11:49:28.047Z,325
2018-02-17T11:50:27.272Z,310
2018-02-17T11:51:28.036Z,305
2018-02-17T11:52:28.032Z,300
2018-02-17T11:53:27.776Z,295
2018-02-17T11:54:28.023Z,290
2018-02-17T11:55:28.038Z,300
2018-02-17T11:56:27.741Z,300
2018-02-17T11:57:27.743Z,300
2018-02-17T11:58:28.008Z,300
2018-02-17T11:59:28.009Z,310
2018-02-17T12:00:27.200Z,315
2018-02-17T12:01:27.493Z,320
2018-02-17T12:02:27.693Z,320
2018-02-17T12:03:28.028Z,325
2018-02-17T12:04:26.903Z,325
2018-02-17T12:05:27.691Z,315
2018-02-17T12:06:27.404Z,315
2018-02-17T12:07:27.136Z,310
2018-02-17T12:08:26.882Z,315
2018-02-17T12:09:27.388Z,325
2018-02-17T12:10:27.638Z,325
2018-02-17T12:11:27.619Z,330
2018-02-17T12:12:27.637Z,335
2018-02-17T12:13:27.604Z,335
2018-02-17T12:14:27.591Z,330
2018-02-17T12:15:27.630Z,325
2018-02-17T12:16:27.582Z,325
2018-02-17T12:17:27.570Z,320
2018-02-17T12:18:27.302Z,315
2018-02-17T12:19:27.568Z,310
2018-02-17T12:20:27.545Z,310
2018-02-17T12:21:27.546Z,310
2018-02-17T12:22:27.787Z,305
2018-02-17T12:23:27.526Z,295
2018-02-17T12:24:27.252Z,290
2018-02-17T12:25:27.511Z,295
2018-02-17T12:26:27.239Z,290
2018-02-17T12:27:27.227Z,290
2018-02-17T12:28:26.767Z,290
2018-02-17T12:29:27.213Z,290
2018-02-17T12:30:27.457Z,295
2018-02-17T12:31:27.452Z,290
2018-02-17T12:32:27.704Z,290
2018-02-17T12:33:27.699Z,280
2018-02-17T12:34:27.508Z,270
2018-02-17T12:35:27.189Z,270
2018-02-17T12:36:27.418Z,280
2018-02-17T12:37:27.656Z,275
2018-02-17T12:38:27.653Z,260
2018-02-17T12:39:27.653Z,260
2018-02-17T12:40:27.704Z,255
2018-02-17T12:41:27.628Z,250
2018-02-17T12:42:27.359Z,250
2018-02-17T12:43:27.613Z,240
2018-02-17T12:44:27.614Z,240
2018-02-17T12:45:27.591Z,240
2018-02-17T12:46:27.601Z,230
2018-02-17T12:47:27.571Z,240
2018-02-17T12:48:27.335Z,235
2018-02-17T12:49:27.553Z,225
2018-02-17T12:50:27.566Z,230
2018-02-17T12:51:27.792Z,240
2018-02-17T12:52:27.280Z,245
2018-02-17T12:53:27.630Z,245
2018-02-17T12:54:27.265Z,245
2018-02-17T12:55:27.511Z,235
2018-02-17T12:56:27.509Z,230
2018-02-17T12:57:27.502Z,235
2018-02-17T12:58:27.485Z,235
2018-02-17T12:59:27.210Z,235
2018-02-17T13:00:27.458Z,235
2018-02-17T13:01:27.455Z,235
2018-02-17T13:02:27.449Z,230
2018-02-17T13:03:27.442Z,220
2018-02-17T13:04:27.181Z,220
2018-02-17T13:05:27.425Z,225
2018-02-17T13:06:27.416Z,230
2018-02-17T13:07:27.408Z,235
2018-02-17T13:08:27.132Z,240
2018-02-17T13:09:27.385Z,235
2018-02-17T13:10:27.380Z,245
2018-02-17T13:11:27.360Z,245
2018-02-17T13:12:27.361Z,240
2018-02-17T13:13:27.401Z,235
2018-02-17T13:14:27.359Z,225
2018-02-17T13:15:27.068Z,230
2018-02-17T13:16:27.067Z,225
2018-02-17T13:17:27.062Z,235
2018-02-17T13:18:27.290Z,240
2018-02-17T13:19:27.307Z,245
2018-02-17T13:20:27.291Z,245
2018-02-17T13:21:27.265Z,245
2018-02-17T13:22:27.507Z,240
2018-02-17T13:23:27.273Z,235
2018-02-17T13:24:27.249Z,225
2018-02-17T13:25:27.225Z,215
2018-02-17T13:26:27.241Z,210
2018-02-17T13:27:27.221Z,200
2018-02-17T13:28:27.200Z,205
2018-02-17T13:29:27.231Z,210
2018-02-17T13:30:26.945Z,205
2018-02-17T13:31:26.663Z,205
2018-02-17T13:32:26.908Z,200
2018-02-17T13:33:27.159Z,200
2018-02-17T13:34:26.649Z,200
2018-02-17T13:35:27.161Z,200
2018-02-17T13:36:27.116Z,205
2018-02-17T13:37:26.907Z,200
2018-02-17T13:38:27.106Z,195
2018-02-17T13:39:27.110Z,195
2018-02-17T13:40:26.845Z,190
2018-02-17T13:41:27.081Z,190
2018-02-17T13:42:26.818Z,190
2018-02-17T13:43:27.059Z,195
2018-02-17T13:44:26.801Z,195
2018-02-17T13:45:27.042Z,200
2018-02-17T13:46:27.029Z,200
2018-02-17T13:47:27.033Z,200
2018-02-17T13:48:27.015Z,200
2018-02-17T13:49:26.495Z,200
2018-02-17T13:50:27.002Z,200
2018-02-17T13:51:26.993Z,195
2018-02-17T13:52:26.718Z,190
2018-02-17T13:53:27.215Z,190
2018-02-17T13:54:26.949Z,185
2018-02-17T13:55:26.952Z,180
2018-02-17T13:56:26.937Z,175
2018-02-17T13:57:26.658Z,175
2018-02-17T13:58:26.912Z,170
2018-02-17T13:59:26.911Z,170
2018-02-17T14:00:26.923Z,170
2018-02-17T14:01:26.957Z,165
2018-02-17T14:02:26.612Z,165
2018-02-17T14:03:26.613Z,165
2018-02-17T14:04:26.596Z,160
2018-02-17T14:05:26.838Z,165
2018-02-17T14:06:26.834Z,155
2018-02-17T14:07:26.838Z,150
2018-02-17T14:08:26.584Z,150
2018-02-17T14:09:26.563Z,145
2018-02-17T14:10:26.859Z,145
2018-02-17T14:11:26.803Z,145
2018-02-17T14:12:26.538Z,140
2018-02-17T14:13:26.278Z,140
2018-02-17T14:14:26.796Z,140